createdAt,value
2023-02-22T00:02:24.018Z,9.08
2023-02-22T00:04:52.388Z,8.65
2023-02-22T00:07:21.627Z,8.76
2023-02-22T00:09:49.760Z,8.71
2023-02-22T00:12:18.106Z,8.03
2023-02-22T00:14:46.038Z,8.62
2023-02-22T00:17:14.004Z,8.51
2023-02-22T00:19:42.296Z,8.89
2023-02-22T00:22:10.214Z,7.92
2023-02-22T00:24:38.201Z,8.26
2023-02-22T00:27:06.642Z,8.72
2023-02-22T00:29:34.848Z,8.30
2023-02-22T00:32:03.015Z,8.49
2023-02-22T00:34:31.429Z,7.36
2023-02-22T00:37:03.065Z,7.66
2023-02-22T00:39:31.401Z,7.24
2023-02-22T00:42:00.380Z,6.97
2023-02-22T00:44:30.270Z,6.83
2023-02-22T00:46:58.612Z,7.66
2023-02-22T00:49:26.592Z,7.60
2023-02-22T00:51:55.067Z,8.13
2023-02-22T00:54:23.425Z,7.95
2023-02-22T00:56:51.584Z,7.94
2023-02-22T00:59:19.692Z,7.70
2023-02-22T01:01:48.178Z,7.89
2023-02-22T01:04:16.128Z,7.19
2023-02-22T01:06:44.243Z,7.44
2023-02-22T01:09:12.632Z,7.41
2023-02-22T01:11:42.175Z,7.19
2023-02-22T01:14:10.041Z,7.13
2023-02-22T01:16:38.375Z,7.82
2023-02-22T01:19:06.622Z,7.61
2023-02-22T01:21:34.938Z,7.79
2023-02-22T01:24:03.312Z,7.93
2023-02-22T01:26:31.220Z,7.79
2023-02-22T01:28:59.242Z,7.18
2023-02-22T01:31:27.807Z,7.74
2023-02-22T01:33:55.676Z,7.33
2023-02-22T01:36:23.547Z,7.28
2023-02-22T01:38:51.799Z,7.56
2023-02-22T01:41:21.448Z,7.43
2023-02-22T01:43:49.354Z,7.56
2023-02-22T01:46:22.243Z,6.11
2023-02-22T01:48:54.802Z,6.39
2023-02-22T01:51:31.525Z,6.80
2023-02-22T01:54:03.724Z,6.98
2023-02-22T01:56:35.248Z,6.94
2023-02-22T01:59:09.175Z,6.88
2023-02-22T02:01:39.281Z,6.79
2023-02-22T02:04:11.532Z,6.84
2023-02-22T02:06:42.499Z,6.69
2023-02-22T02:09:31.779Z,5.97
2023-02-22T02:12:05.386Z,6.55
2023-02-22T02:14:34.110Z,6.74
2023-02-22T02:17:02.205Z,6.77
2023-02-22T02:19:40.751Z,6.84
2023-02-22T02:22:35.247Z,6.47
2023-02-22T02:25:17.701Z,5.98
2023-02-22T02:28:13.903Z,5.94
2023-02-22T02:30:48.839Z,6.02
2023-02-22T02:33:26.923Z,5.92
2023-02-22T02:36:20.463Z,5.06
2023-02-22T02:38:54.723Z,5.79
2023-02-22T02:41:28.289Z,5.75
2023-02-22T02:44:07.342Z,6.30
2023-02-22T02:46:53.658Z,6.17
2023-02-22T02:49:36.739Z,6.39
2023-02-22T02:52:05.896Z,6.34
2023-02-22T02:54:34.583Z,6.72
2023-02-22T02:57:03.107Z,6.46
2023-02-22T02:59:39.885Z,5.91
2023-02-22T03:02:27.009Z,6.55
2023-02-22T03:05:07.704Z,6.03
2023-02-22T03:07:48.239Z,6.13
2023-02-22T03:10:28.240Z,7.06
2023-02-22T03:14:01.110Z,6.75
2023-02-22T03:16:50.532Z,6.84
2023-02-22T03:19:46.067Z,6.95
2023-02-22T03:22:44.306Z,7.46
2023-02-22T03:25:20.677Z,7.85
2023-02-22T03:27:54.410Z,8.14
2023-02-22T03:30:28.312Z,8.58
2023-02-22T03:33:00.776Z,9.05
2023-02-22T03:35:33.807Z,8.94
2023-02-22T03:38:04.576Z,9.26
2023-02-22T03:40:40.090Z,9.64
2023-02-22T03:43:10.903Z,9.62
2023-02-22T03:45:43.658Z,9.60
2023-02-22T03:48:14.601Z,9.84
2023-02-22T03:50:43.126Z,9.75
2023-02-22T03:53:11.669Z,9.97
2023-02-22T03:55:40.146Z,10.09
2023-02-22T03:58:12.351Z,9.71
2023-02-22T04:00:44.753Z,9.99
2023-02-22T04:03:13.371Z,10.31
2023-02-22T04:05:41.631Z,10.16
2023-02-22T04:08:10.105Z,9.86
2023-02-22T04:10:38.481Z,10.06
2023-02-22T04:13:09.108Z,9.56
2023-02-22T04:15:37.609Z,9.51
2023-02-22T04:18:06.341Z,9.29
2023-02-22T04:20:35.164Z,9.68
2023-02-22T04:23:03.926Z,9.40
2023-02-22T04:25:32.357Z,9.26
2023-02-22T04:28:04.408Z,9.16
2023-02-22T04:30:33.571Z,9.24
2023-02-22T04:33:01.961Z,8.83
2023-02-22T04:35:29.887Z,8.74
2023-02-22T04:37:58.540Z,8.40
2023-02-22T04:40:26.482Z,8.61
2023-02-22T04:42:54.411Z,8.77
2023-02-22T04:45:23.074Z,8.53
2023-02-22T04:47:51.142Z,8.49
2023-02-22T04:50:19.381Z,8.27
2023-02-22T04:52:47.752Z,8.58
2023-02-22T04:55:16.954Z,8.92
2023-02-22T04:57:45.111Z,8.10
2023-02-22T05:00:17.610Z,8.66
2023-02-22T05:02:46.194Z,9.14
2023-02-22T05:05:16.345Z,8.86
2023-02-22T05:07:44.497Z,8.95
2023-02-22T05:10:12.415Z,8.53
2023-02-22T05:12:40.964Z,8.24
2023-02-22T05:15:09.504Z,7.87
2023-02-22T05:17:37.619Z,7.60
2023-02-22T05:20:08.763Z,7.82
2023-02-22T05:22:36.713Z,8.21
2023-02-22T05:25:04.886Z,8.91
2023-02-22T05:27:33.224Z,8.67
2023-02-22T05:30:01.096Z,8.82
2023-02-22T05:32:29.006Z,8.08
2023-02-22T05:34:57.438Z,7.94
2023-02-22T05:37:25.368Z,7.93
2023-02-22T05:39:53.398Z,7.98
2023-02-22T05:42:22.322Z,8.12
2023-02-22T05:44:50.276Z,8.03
2023-02-22T05:47:18.515Z,8.18
2023-02-22T05:49:46.840Z,8.20
2023-02-22T05:52:14.756Z,8.19
2023-02-22T05:54:42.659Z,8.23
2023-02-22T05:57:10.982Z,7.86
2023-02-22T05:59:38.950Z,8.03
2023-02-22T06:02:06.877Z,8.67
2023-02-22T06:04:35.297Z,7.94
2023-02-22T06:07:03.472Z,7.98
2023-02-22T06:09:31.867Z,8.43
2023-02-22T06:12:00.190Z,8.51
2023-02-22T06:14:28.104Z,8.65
2023-02-22T06:16:57.341Z,8.45
2023-02-22T06:19:26.506Z,9.25
2023-02-22T06:21:56.759Z,9.66
2023-02-22T06:24:24.677Z,9.61
2023-02-22T06:26:57.796Z,9.54
2023-02-22T06:29:26.479Z,9.80
2023-02-22T06:31:54.990Z,9.67
2023-02-22T06:34:22.993Z,9.52
2023-02-22T06:36:51.008Z,9.89
2023-02-22T06:39:19.413Z,9.83
2023-02-22T06:41:48.753Z,9.58
2023-02-22T06:44:16.809Z,9.46
2023-02-22T06:46:51.492Z,9.71
2023-02-22T06:49:21.890Z,9.55
2023-02-22T06:51:50.250Z,10.02
2023-02-22T06:54:18.215Z,10.17
2023-02-22T06:56:48.937Z,10.25
2023-02-22T06:59:17.313Z,10.46
2023-02-22T07:01:45.395Z,10.40
2023-02-22T07:04:13.500Z,10.47
2023-02-22T07:06:50.967Z,10.56
2023-02-22T07:09:19.302Z,10.52
2023-02-22T07:11:47.801Z,10.84
2023-02-22T07:14:18.886Z,10.75
2023-02-22T07:16:47.286Z,10.79
2023-02-22T07:19:15.294Z,10.80
2023-02-22T07:21:43.232Z,10.92
2023-02-22T07:24:11.583Z,10.47
2023-02-22T07:26:42.947Z,10.22
2023-02-22T07:29:11.607Z,10.62
2023-02-22T07:31:39.792Z,10.92
2023-02-22T07:34:07.803Z,10.93
2023-02-22T07:36:37.069Z,10.74
2023-02-22T07:39:08.947Z,10.77
2023-02-22T07:41:37.364Z,11.34
2023-02-22T07:44:15.297Z,11.93
2023-02-22T07:46:48.584Z,12.58
2023-02-22T07:49:17.275Z,13.23
2023-02-22T07:51:45.753Z,13.64
2023-02-22T07:54:13.689Z,13.61
2023-02-22T07:56:46.511Z,14.09
2023-02-22T07:59:15.771Z,14.12
2023-02-22T08:01:43.793Z,13.73
2023-02-22T08:04:12.162Z,13.76
2023-02-22T08:06:40.159Z,14.67
2023-02-22T08:09:10.091Z,14.46
2023-02-22T08:11:38.578Z,14.15
2023-02-22T08:14:06.568Z,15.12
2023-02-22T08:16:34.647Z,15.59
2023-02-22T08:19:03.032Z,15.20
2023-02-22T08:21:31.258Z,15.16
2023-02-22T08:23:59.208Z,14.54
2023-02-22T08:26:27.957Z,14.95
2023-02-22T08:28:57.348Z,14.59
2023-02-22T08:31:25.606Z,14.49
2023-02-22T08:33:54.241Z,15.26
2023-02-22T08:36:22.152Z,15.03
2023-02-22T08:38:50.376Z,14.76
2023-02-22T08:41:19.074Z,15.13
2023-02-22T08:43:47.219Z,14.66
2023-02-22T08:46:17.492Z,15.09
2023-02-22T08:48:52.826Z,14.92
2023-02-22T08:51:21.361Z,15.01
2023-02-22T08:53:49.713Z,15.20
2023-02-22T08:56:19.013Z,15.22
2023-02-22T08:58:46.987Z,15.86
2023-02-22T09:01:24.800Z,16.36
2023-02-22T09:04:01.228Z,16.14
2023-02-22T09:06:29.930Z,15.82
2023-02-22T09:08:57.997Z,16.54
2023-02-22T09:11:25.944Z,15.43
2023-02-22T09:13:54.310Z,15.78
2023-02-22T09:16:22.252Z,14.94
2023-02-22T09:18:50.305Z,14.81
2023-02-22T09:21:18.866Z,14.94
2023-02-22T09:23:48.089Z,15.01
2023-02-22T09:26:16.406Z,14.81
2023-02-22T09:28:44.747Z,15.54
2023-02-22T09:31:12.964Z,15.16
2023-02-22T09:33:47.377Z,14.62
2023-02-22T09:36:16.157Z,14.84
2023-02-22T09:38:44.712Z,14.87
2023-02-22T09:41:35.248Z,14.90
2023-02-22T09:44:31.453Z,14.83
2023-02-22T09:47:00.089Z,14.95
2023-02-22T09:49:32.986Z,14.59
2023-02-22T09:52:11.594Z,14.43
2023-02-22T09:54:52.183Z,14.63
2023-02-22T09:57:30.223Z,14.47
2023-02-22T10:00:13.836Z,14.41
2023-02-22T10:05:41.048Z,14.55
2023-02-22T10:08:14.029Z,14.21
2023-02-22T10:10:46.270Z,14.17
2023-02-22T10:13:35.573Z,14.62
2023-02-22T10:16:17.143Z,14.46
2023-02-22T10:19:08.504Z,14.27
2023-02-22T10:22:05.193Z,14.46
2023-02-22T10:24:53.096Z,14.21
2023-02-22T10:27:36.057Z,13.92
2023-02-22T10:30:22.366Z,14.10
2023-02-22T10:33:19.307Z,14.59
2023-02-22T10:35:48.025Z,14.58
2023-02-22T10:38:20.456Z,14.56
2023-02-22T10:40:57.190Z,14.31
2023-02-22T10:43:25.981Z,14.69
2023-02-22T10:45:56.912Z,14.40
2023-02-22T10:48:28.953Z,14.86
2023-02-22T10:51:05.140Z,14.97
2023-02-22T10:53:38.518Z,14.92
2023-02-22T10:56:19.575Z,14.59
2023-02-22T10:58:50.047Z,14.32
2023-02-22T11:01:37.183Z,14.84
2023-02-22T11:04:12.358Z,14.53
2023-02-22T11:06:46.706Z,14.28
2023-02-22T11:09:25.121Z,14.61
2023-02-22T11:12:11.594Z,14.68
2023-02-22T11:14:41.143Z,15.21
2023-02-22T11:17:10.865Z,15.13
2023-02-22T11:19:47.818Z,15.00
2023-02-22T11:22:26.083Z,15.23
2023-02-22T11:24:57.813Z,15.14
2023-02-22T11:27:40.192Z,14.84
2023-02-22T11:30:31.703Z,15.12
2023-02-22T11:33:11.315Z,15.48
2023-02-22T11:36:36.447Z,15.58
2023-02-22T11:39:29.320Z,15.83
2023-02-22T11:41:57.441Z,15.15
2023-02-22T11:44:33.587Z,15.06
2023-02-22T11:47:09.279Z,14.88
2023-02-22T11:49:43.953Z,14.89
2023-02-22T11:52:28.717Z,14.73
2023-02-22T11:55:41.208Z,15.12
2023-02-22T11:58:27.624Z,15.17
2023-02-22T12:01:03.177Z,15.06
2023-02-22T12:04:17.169Z,15.59
2023-02-22T12:07:04.380Z,15.89
2023-02-22T12:09:40.997Z,15.40
2023-02-22T12:12:36.433Z,15.20
2023-02-22T12:15:22.201Z,15.23
2023-02-22T12:18:09.261Z,15.62
2023-02-22T12:21:01.931Z,15.36
2023-02-22T12:24:15.042Z,15.02
2023-02-22T12:26:51.163Z,15.33
2023-02-22T12:29:37.834Z,15.60
2023-02-22T12:32:20.418Z,15.56
2023-02-22T12:34:59.906Z,15.62
2023-02-22T12:38:03.210Z,15.31
2023-02-22T12:40:57.316Z,14.36
2023-02-22T12:43:49.288Z,14.26
2023-02-22T12:46:22.101Z,14.41
2023-02-22T12:49:14.106Z,14.78
2023-02-22T12:51:46.314Z,14.90
2023-02-22T12:54:37.873Z,14.53
2023-02-22T12:57:12.366Z,14.83
2023-02-22T12:59:49.717Z,14.91
2023-02-22T13:02:34.775Z,14.91
2023-02-22T13:05:03.610Z,14.14
2023-02-22T13:07:52.213Z,14.35
2023-02-22T13:10:39.655Z,14.84
2023-02-22T13:13:33.960Z,14.72
2023-02-22T13:16:17.268Z,14.58
2023-02-22T13:19:30.862Z,14.52
2023-02-22T13:22:07.872Z,14.42
2023-02-22T13:24:40.782Z,14.41
2023-02-22T13:27:15.030Z,14.25
2023-02-22T13:29:46.823Z,14.40
2023-02-22T13:32:35.417Z,14.10
2023-02-22T13:35:12.718Z,14.33
2023-02-22T13:37:59.217Z,14.50
2023-02-22T13:40:36.237Z,14.86
2023-02-22T13:43:32.380Z,14.53
2023-02-22T13:46:19.404Z,14.28
2023-02-22T13:49:05.270Z,13.90
2023-02-22T13:51:52.767Z,13.92
2023-02-22T13:54:25.825Z,13.98
2023-02-22T13:56:54.909Z,13.90
2023-02-22T13:59:36.169Z,13.53
2023-02-22T14:02:06.061Z,13.91
2023-02-22T14:04:42.298Z,13.72
2023-02-22T14:07:22.476Z,13.80
2023-02-22T14:10:00.231Z,13.78
2023-02-22T14:12:31.111Z,13.87
2023-02-22T14:15:28.617Z,14.03
2023-02-22T14:17:57.405Z,13.97
2023-02-22T14:20:31.402Z,14.04
2023-02-22T14:23:25.081Z,13.91
2023-02-22T14:25:55.475Z,14.38
2023-02-22T14:29:02.377Z,14.76
2023-02-22T14:31:52.840Z,14.45
2023-02-22T14:34:31.548Z,14.49
2023-02-22T14:37:17.750Z,14.10
2023-02-22T14:39:52.815Z,14.32
2023-02-22T14:42:31.844Z,14.83
2023-02-22T14:45:28.430Z,14.53
2023-02-22T14:48:14.083Z,13.99
2023-02-22T14:50:48.980Z,14.08
2023-02-22T14:53:46.314Z,14.20
2023-02-22T14:56:24.164Z,14.08
2023-02-22T14:59:00.091Z,13.98
2023-02-22T15:01:47.330Z,14.02
2023-02-22T15:04:22.306Z,14.04
2023-02-22T15:06:51.210Z,14.03
2023-02-22T15:09:28.433Z,14.40
2023-02-22T15:12:03.376Z,14.30
2023-02-22T15:14:39.178Z,13.98
2023-02-22T15:17:20.614Z,14.26
2023-02-22T15:19:51.422Z,13.78
2023-02-22T15:22:27.349Z,13.80
2023-02-22T15:25:01.401Z,14.08
2023-02-22T15:27:29.714Z,14.29
2023-02-22T15:30:05.049Z,14.30
2023-02-22T15:32:41.481Z,13.83
2023-02-22T15:35:32.999Z,13.55
2023-02-22T15:38:18.519Z,13.31
2023-02-22T15:40:50.878Z,13.71
2023-02-22T15:43:24.780Z,13.62
2023-02-22T15:45:55.265Z,13.76
2023-02-22T15:48:23.693Z,13.95
2023-02-22T15:51:13.994Z,13.80
2023-02-22T15:53:47.337Z,13.73
2023-02-22T15:56:24.611Z,13.70
2023-02-22T15:59:00.104Z,13.76
2023-02-22T16:01:28.066Z,13.34
2023-02-22T16:04:01.694Z,13.28
2023-02-22T16:06:36.300Z,13.24
2023-02-22T16:09:13.324Z,13.51
2023-02-22T16:11:50.481Z,14.07
2023-02-22T16:14:37.944Z,13.69
2023-02-22T16:17:29.796Z,13.84
2023-02-22T16:20:14.204Z,14.06
2023-02-22T16:22:49.573Z,14.30
2023-02-22T16:25:25.342Z,13.91
2023-02-22T16:28:03.429Z,13.36
2023-02-22T16:30:35.078Z,13.80
2023-02-22T16:33:16.729Z,12.62
2023-02-22T16:35:52.163Z,13.30
2023-02-22T16:38:22.098Z,13.43
2023-02-22T16:40:55.700Z,13.45
2023-02-22T16:43:30.095Z,13.38
2023-02-22T16:45:58.729Z,12.13
2023-02-22T16:48:30.207Z,12.49
2023-02-22T16:51:08.151Z,12.71
2023-02-22T16:53:37.174Z,12.68
2023-02-22T16:56:09.420Z,12.73
2023-02-22T16:58:41.659Z,12.81
2023-02-22T17:01:13.007Z,12.79
2023-02-22T17:03:41.188Z,12.53
2023-02-22T17:06:12.395Z,12.49
2023-02-22T17:08:41.437Z,12.58
2023-02-22T17:11:11.707Z,12.35
2023-02-22T17:13:41.098Z,12.31
2023-02-22T17:16:14.355Z,12.44
2023-02-22T17:18:42.295Z,12.27
2023-02-22T17:21:14.535Z,11.32
2023-02-22T17:23:46.305Z,10.40
2023-02-22T17:26:16.300Z,11.14
2023-02-22T17:28:44.626Z,11.10
2023-02-22T17:31:23.486Z,11.40
2023-02-22T17:33:51.798Z,12.06
2023-02-22T17:36:21.042Z,10.97
2023-02-22T17:38:50.145Z,11.86
2023-02-22T17:41:18.564Z,11.68
2023-02-22T17:43:46.619Z,11.82
2023-02-22T17:46:14.599Z,11.64
2023-02-22T17:48:43.278Z,10.51
2023-02-22T17:51:12.413Z,10.67
2023-02-22T17:53:40.885Z,11.20
2023-02-22T17:56:12.536Z,11.68
2023-02-22T17:58:41.777Z,11.10
2023-02-22T18:01:21.077Z,10.11
2023-02-22T18:03:49.739Z,10.08
2023-02-22T18:06:22.568Z,9.97
2023-02-22T18:08:56.497Z,10.85
2023-02-22T18:11:26.614Z,10.86
2023-02-22T18:13:59.023Z,11.17
2023-02-22T18:16:27.957Z,11.17
2023-02-22T18:18:56.641Z,10.47
2023-02-22T18:21:27.022Z,10.10
2023-02-22T18:23:55.510Z,10.18
2023-02-22T18:26:25.972Z,9.97
2023-02-22T18:28:54.261Z,10.53
2023-02-22T18:31:23.439Z,10.73
2023-02-22T18:33:52.652Z,10.28
2023-02-22T18:36:23.971Z,10.52
2023-02-22T18:38:54.043Z,10.26
2023-02-22T18:41:26.582Z,10.21
2023-02-22T18:44:00.607Z,10.30
2023-02-22T18:46:30.348Z,10.73
2023-02-22T18:48:59.953Z,10.94
2023-02-22T18:51:29.170Z,10.92
2023-02-22T18:54:03.669Z,10.53
2023-02-22T18:56:36.135Z,10.46
2023-02-22T18:59:12.359Z,10.89
2023-02-22T19:01:41.576Z,10.82
2023-02-22T19:04:10.366Z,11.13
2023-02-22T19:06:39.280Z,11.63
2023-02-22T19:09:08.851Z,11.35
2023-02-22T19:11:37.596Z,11.05
2023-02-22T19:14:06.419Z,10.90
2023-02-22T19:16:35.364Z,11.44
2023-02-22T19:19:04.006Z,11.44
2023-02-22T19:21:32.691Z,11.52
2023-02-22T19:24:03.597Z,11.31
2023-02-22T19:26:32.347Z,11.60
2023-02-22T19:29:05.114Z,11.65
2023-02-22T19:31:34.390Z,11.64
2023-02-22T19:34:03.406Z,11.72
2023-02-22T19:36:31.899Z,11.57
2023-02-22T19:39:03.141Z,11.69
2023-02-22T19:41:31.519Z,10.65
2023-02-22T19:44:00.390Z,10.47
2023-02-22T19:46:29.462Z,11.17
2023-02-22T19:48:58.210Z,11.38
2023-02-22T19:51:28.470Z,11.87
2023-02-22T19:54:02.792Z,11.48
2023-02-22T19:56:31.705Z,11.46
2023-02-22T19:59:02.679Z,11.61
2023-02-22T20:01:33.464Z,11.55
2023-02-22T20:04:04.783Z,11.24
2023-02-22T20:06:36.306Z,11.56
2023-02-22T20:09:04.708Z,11.33
2023-02-22T20:11:32.839Z,11.38
2023-02-22T20:14:05.806Z,11.57
2023-02-22T20:16:35.110Z,11.56
2023-02-22T20:19:03.716Z,11.08
2023-02-22T20:21:34.065Z,11.22
2023-02-22T20:24:15.178Z,11.35
2023-02-22T20:26:43.540Z,11.30
2023-02-22T20:29:12.327Z,11.14
2023-02-22T20:31:41.998Z,11.33
2023-02-22T20:34:11.012Z,11.28
2023-02-22T20:36:41.666Z,11.39
2023-02-22T20:39:14.348Z,11.32
2023-02-22T20:41:45.225Z,11.44
2023-02-22T20:44:15.532Z,11.43
2023-02-22T20:46:45.289Z,11.33
2023-02-22T20:49:17.262Z,11.26
2023-02-22T20:51:46.683Z,11.41
2023-02-22T20:54:14.660Z,11.26
2023-02-22T20:56:45.385Z,11.18
2023-02-22T20:59:17.220Z,11.30
2023-02-22T21:01:45.395Z,11.09
2023-02-22T21:04:13.911Z,11.47
2023-02-22T21:06:42.157Z,11.25
2023-02-22T21:09:15.580Z,10.93
2023-02-22T21:11:44.236Z,11.10
2023-02-22T21:14:16.901Z,11.53
2023-02-22T21:16:46.874Z,11.30
2023-02-22T21:19:16.774Z,11.05
2023-02-22T21:21:45.002Z,10.95
2023-02-22T21:24:13.667Z,10.66
2023-02-22T21:26:41.654Z,11.01
2023-02-22T21:29:10.331Z,10.94
2023-02-22T21:31:38.924Z,11.34
2023-02-22T21:34:06.972Z,10.87
2023-02-22T21:36:34.825Z,11.36
2023-02-22T21:39:09.671Z,10.67
2023-02-22T21:41:40.509Z,11.16
2023-02-22T21:44:09.170Z,10.80
2023-02-22T21:46:37.138Z,10.91
2023-02-22T21:49:06.028Z,10.77
2023-02-22T21:51:35.376Z,11.24
2023-02-22T21:54:08.389Z,10.92
2023-02-22T21:56:40.034Z,10.43
2023-02-22T21:59:14.610Z,10.47
2023-02-22T22:01:50.550Z,10.80
2023-02-22T22:04:24.946Z,10.79
2023-02-22T22:06:54.272Z,10.69
2023-02-22T22:09:23.853Z,10.85
2023-02-22T22:12:01.520Z,11.14
2023-02-22T22:14:29.804Z,10.86
2023-02-22T22:16:59.435Z,11.03
2023-02-22T22:19:29.437Z,10.73
2023-02-22T22:21:58.335Z,10.64
2023-02-22T22:24:28.948Z,10.99
2023-02-22T22:26:57.273Z,10.81
2023-02-22T22:29:29.199Z,10.57
2023-02-22T22:31:57.667Z,10.56
2023-02-22T22:34:29.668Z,10.71
2023-02-22T22:36:58.328Z,10.51
2023-02-22T22:39:27.070Z,10.65
2023-02-22T22:41:55.285Z,10.53
2023-02-22T22:44:23.567Z,10.53
2023-02-22T22:46:54.977Z,10.53
2023-02-22T22:49:25.641Z,10.89
2023-02-22T22:51:54.724Z,10.47
2023-02-22T22:54:22.539Z,10.47
2023-02-22T22:56:50.786Z,10.53
2023-02-22T22:59:18.761Z,10.47
2023-02-22T23:01:46.725Z,10.49
2023-02-22T23:04:16.595Z,10.51
2023-02-22T23:06:47.056Z,9.94
2023-02-22T23:09:30.673Z,10.52
2023-02-22T23:12:10.309Z,10.46
2023-02-22T23:14:45.740Z,10.34
2023-02-22T23:17:16.348Z,10.61
2023-02-22T23:19:45.374Z,10.43
2023-02-22T23:22:14.608Z,10.47
2023-02-22T23:24:44.671Z,10.55
2023-02-22T23:27:13.020Z,10.54
2023-02-22T23:29:42.409Z,10.42
2023-02-22T23:32:10.561Z,10.55
2023-02-22T23:34:41.693Z,10.48
2023-02-22T23:37:10.932Z,10.63
2023-02-22T23:39:39.387Z,10.34
2023-02-22T23:42:10.270Z,10.61
2023-02-22T23:44:39.968Z,10.21
2023-02-22T23:47:09.840Z,10.43
2023-02-22T23:49:38.705Z,9.92
2023-02-22T23:52:07.979Z,10.16
2023-02-22T23:54:40.557Z,10.41
2023-02-22T23:57:09.055Z,10.63
2023-02-22T23:59:40.630Z,10.65
